Terminal Aerodrome Forecast
Issued by NWS Sterling, VA

Current Version | Previous Version | Graphics & Text | Print | Product List | Glossary On
Versions: 1 2 3 4 5 6 7 8 9 10 11 12 13 14 15 16 17 18 19 20 21 22 23 24 25 26 27 28 29 30 31 32
157
FTUS41 KLWX 152340
TAFIAD
TAF
KIAD 152340Z 1600/1706 04006KT P6SM SCT020 BKN150
     FM160400 00000KT 5SM BR BKN020
     FM160600 00000KT 2SM BR BKN008
     FM161200 VRB03KT 5SM BR SCT008
     FM161500 34005KT P6SM SCT140
     FM161800 33005KT P6SM SCT035
     FM170000 VRB03KT P6SM SCT250=

USA.gov is the U.S. government's official web portal to all federal, state and local government web resources and services.